Time;durP1;ratioP1;P1;durP2;ratioP2;P2;SDS_P1;SDS_P2;PMS_P1;PMS_P2;Temp;Humidity;BMP_temperature;BMP_pressure;BME280_temperature;BME280_humidity;BME280_pressure;Samples;Min_cycle;Max_cycle;Signal;HPM_P1;HPM_P2
2021/07/21 00:00:45;;;;;;;9.55;5.53;;;;;;;;;;6123324;29;20039;-80
2021/07/21 00:03:47;;;;;;;9.02;5.20;;;;;;;;;;6139950;28;20051;-80
2021/07/21 00:06:49;;;;;;;10.35;5.10;;;;;;;;;;6146281;28;20671;-80
2021/07/21 00:09:51;;;;;;;10.55;5.07;;;;;;;;;;6140967;28;20501;-79
2021/07/21 00:16:20;;;;;;;10.35;5.40;;;;;;;;;;6121379;29;20472;-80
2021/07/21 00:22:44;;;;;;;7.22;4.75;;;;;;;;;;6098538;29;20051;-80
2021/07/21 00:25:47;;;;;;;8.38;4.72;;;;;;;;;;6103368;29;20091;-80
2021/07/21 00:28:49;;;;;;;7.38;4.53;;;;;;;;;;6122831;29;20466;-79
2021/07/21 00:31:50;;;;;;;8.02;4.63;;;;;;;;;;6118120;29;20048;-80
2021/07/21 00:34:52;;;;;;;11.75;5.28;;;;;;;;;;6103887;29;20095;-80
2021/07/21 00:37:54;;;;;;;11.57;5.30;;;;;;;;;;6097111;29;20048;-80
2021/07/21 00:40:57;;;;;;;11.00;5.50;;;;;;;;;;6108114;29;20051;-80
2021/07/21 00:43:59;;;;;;;11.40;5.40;;;;;;;;;;6119401;29;20122;-80
2021/07/21 00:47:02;;;;;;;9.68;5.28;;;;;;;;;;6116914;29;20082;-80
2021/07/21 00:50:05;;;;;;;9.90;5.27;;;;;;;;;;6136366;29;20058;-80
2021/07/21 00:53:07;;;;;;;9.13;5.47;;;;;;;;;;6120710;29;20039;-80
2021/07/21 00:56:10;;;;;;;8.95;5.20;;;;;;;;;;6119524;29;20047;-80
2021/07/21 00:59:11;;;;;;;8.65;4.85;;;;;;;;;;6102942;29;20051;-80
2021/07/21 01:02:16;;;;;;;8.82;5.05;;;;;;;;;;6121853;28;20047;-80
2021/07/21 01:05:26;;;;;;;9.85;5.60;;;;;;;;;;6135296;29;20127;-80
2021/07/21 01:08:32;;;;;;;9.80;5.28;;;;;;;;;;6135396;29;20071;-80
2021/07/21 01:12:32;;;;;;;9.77;5.28;;;;;;;;;;6120390;28;20841;-80
2021/07/21 01:15:43;;;;;;;10.57;5.35;;;;;;;;;;6119081;29;20053;-80
2021/07/21 01:18:54;;;;;;;9.02;4.97;;;;;;;;;;6120294;29;20158;-80
2021/07/21 01:22:08;;;;;;;7.30;4.70;;;;;;;;;;6135249;28;20047;-80
2021/07/21 01:25:23;;;;;;;10.65;5.20;;;;;;;;;;6146098;28;20047;-80
2021/07/21 01:28:43;;;;;;;9.10;5.32;;;;;;;;;;6119982;29;20051;-80
2021/07/21 01:31:46;;;;;;;8.80;5.05;;;;;;;;;;6122940;28;20074;-80
2021/07/21 01:34:51;;;;;;;9.10;4.88;;;;;;;;;;6135704;29;20043;-80
2021/07/21 01:37:59;;;;;;;10.55;5.45;;;;;;;;;;6134694;28;20134;-80
2021/07/21 01:41:06;;;;;;;10.23;5.35;;;;;;;;;;6160951;28;20131;-80
2021/07/21 01:44:14;;;;;;;11.82;5.22;;;;;;;;;;6126437;28;20095;-80
2021/07/21 01:47:22;;;;;;;9.65;5.18;;;;;;;;;;6117823;29;20592;-80
2021/07/21 01:50:25;;;;;;;8.85;4.93;;;;;;;;;;6116236;29;20596;-80
2021/07/21 01:53:34;;;;;;;7.90;4.90;;;;;;;;;;6115922;29;20121;-80
2021/07/21 01:56:40;;;;;;;8.27;5.20;;;;;;;;;;6135729;28;20056;-80
2021/07/21 01:59:45;;;;;;;8.82;5.00;;;;;;;;;;6100496;29;20048;-80
2021/07/21 02:02:55;;;;;;;9.55;5.00;;;;;;;;;;6101719;29;20044;-80
2021/07/21 02:06:16;;;;;;;10.73;4.93;;;;;;;;;;6100607;29;20052;-80
2021/07/21 02:09:19;;;;;;;10.90;4.82;;;;;;;;;;6100540;29;20494;-80
2021/07/21 02:12:21;;;;;;;8.60;4.90;;;;;;;;;;6107238;29;20058;-80
2021/07/21 02:15:24;;;;;;;10.82;5.47;;;;;;;;;;6139901;29;20071;-80
2021/07/21 02:18:26;;;;;;;10.55;5.43;;;;;;;;;;6109062;29;20103;-80
2021/07/21 02:21:29;;;;;;;8.15;4.82;;;;;;;;;;6084720;29;20100;-80
2021/07/21 02:24:31;;;;;;;9.83;5.60;;;;;;;;;;6122276;28;20177;-80
2021/07/21 02:27:44;;;;;;;11.43;5.30;;;;;;;;;;6139976;29;20044;-80
2021/07/21 02:30:48;;;;;;;;;;;;;;;;;;6134827;28;20048;-80
2021/07/21 02:34:02;;;;;;;8.43;4.93;;;;;;;;;;6144558;28;19923;-80
2021/07/21 02:37:04;;;;;;;10.32;5.82;;;;;;;;;;6140481;29;20052;-80
2021/07/21 02:40:17;;;;;;;8.32;4.90;;;;;;;;;;6141686;28;20043;-80
2021/07/21 02:43:26;;;;;;;10.45;4.93;;;;;;;;;;6163426;28;20047;-80
2021/07/21 02:46:34;;;;;;;10.55;5.28;;;;;;;;;;6138794;28;20051;-80
2021/07/21 02:49:36;;;;;;;9.60;4.60;;;;;;;;;;6123425;29;20044;-80
2021/07/21 02:52:55;;;;;;;11.05;5.80;;;;;;;;;;6125196;29;20074;-80
2021/07/21 02:56:12;;;;;;;8.27;5.13;;;;;;;;;;6138691;28;20518;-78
2021/07/21 02:59:23;;;;;;;9.07;5.05;;;;;;;;;;6125405;29;20053;-78
2021/07/21 03:02:28;;;;;;;9.27;5.03;;;;;;;;;;6131548;28;20054;-78
2021/07/21 03:05:35;;;;;;;10.32;5.45;;;;;;;;;;6148645;28;20047;-78
2021/07/21 03:08:42;;;;;;;7.57;4.80;;;;;;;;;;6148249;28;20050;-78
2021/07/21 03:11:59;;;;;;;8.25;4.95;;;;;;;;;;6138457;29;20506;-78
2021/07/21 03:15:03;;;;;;;9.18;4.75;;;;;;;;;;6138843;29;20477;-78
2021/07/21 03:18:09;;;;;;;;;;;;;;;;;;6135817;28;20051;-78
2021/07/21 03:21:16;;;;;;;10.55;4.93;;;;;;;;;;6147401;28;19941;-78
2021/07/21 03:24:24;;;;;;;9.13;4.78;;;;;;;;;;6131400;28;20075;-78
2021/07/21 03:27:37;;;;;;;8.32;4.75;;;;;;;;;;6161560;28;20043;-78
2021/07/21 03:30:59;;;;;;;10.25;5.35;;;;;;;;;;6145520;28;20501;-78
2021/07/21 03:34:10;;;;;;;9.02;5.32;;;;;;;;;;6142387;28;20048;-78
2021/07/21 03:37:21;;;;;;;11.20;4.95;;;;;;;;;;6139384;29;20047;-78
2021/07/21 03:40:34;;;;;;;9.35;5.05;;;;;;;;;;6137327;28;20113;-78
2021/07/21 03:43:56;;;;;;;11.32;5.43;;;;;;;;;;6143573;28;20055;-78
2021/07/21 03:46:57;;;;;;;6.95;4.72;;;;;;;;;;6142101;28;20801;-78
2021/07/21 03:50:00;;;;;;;8.55;4.97;;;;;;;;;;6148438;28;20051;-78
2021/07/21 03:53:08;;;;;;;8.18;4.78;;;;;;;;;;6161454;28;20126;-78
2021/07/21 03:56:11;;;;;;;9.15;4.53;;;;;;;;;;6146460;28;20505;-78
2021/07/21 03:59:20;;;;;;;8.25;4.70;;;;;;;;;;6149374;28;20043;-78
2021/07/21 04:02:25;;;;;;;9.02;4.97;;;;;;;;;;6141139;28;20051;-78
2021/07/21 04:05:31;;;;;;;8.18;4.85;;;;;;;;;;6123448;29;20103;-78
2021/07/21 04:08:42;;;;;;;8.55;4.78;;;;;;;;;;6124274;29;20059;-79
2021/07/21 04:11:45;;;;;;;9.25;5.57;;;;;;;;;;6133058;28;20043;-78
2021/07/21 04:14:54;;;;;;;11.68;5.70;;;;;;;;;;6162437;28;20046;-78
2021/07/21 04:18:14;;;;;;;10.15;5.63;;;;;;;;;;6143547;28;20043;-79
2021/07/21 04:21:17;;;;;;;10.02;5.40;;;;;;;;;;6159147;28;20047;-79
2021/07/21 04:24:24;;;;;;;10.10;5.22;;;;;;;;;;6143442;28;20089;-79
2021/07/21 04:27:27;;;;;;;10.18;5.68;;;;;;;;;;6132935;28;20505;-79
2021/07/21 04:30:47;;;;;;;10.77;5.57;;;;;;;;;;6146542;28;20540;-79
2021/07/21 04:33:49;;;;;;;9.80;5.47;;;;;;;;;;6125701;28;20043;-78
2021/07/21 04:36:55;;;;;;;7.55;5.18;;;;;;;;;;6120477;29;20048;-78
2021/07/21 04:40:14;;;;;;;8.60;5.55;;;;;;;;;;6135383;28;20047;-79
2021/07/21 04:43:18;;;;;;;9.43;5.45;;;;;;;;;;6119298;29;20063;-78
2021/07/21 04:46:21;;;;;;;10.00;5.30;;;;;;;;;;6127157;28;20058;-78
2021/07/21 04:49:24;;;;;;;9.63;5.43;;;;;;;;;;6142119;28;20472;-78
2021/07/21 04:52:28;;;;;;;9.45;5.90;;;;;;;;;;6143951;28;20130;-79
2021/07/21 04:55:31;;;;;;;8.57;5.22;;;;;;;;;;6159724;28;20134;-79
2021/07/21 04:58:32;;;;;;;9.02;5.45;;;;;;;;;;6126702;28;20048;-78
2021/07/21 05:01:42;;;;;;;8.20;4.93;;;;;;;;;;6135244;29;20048;-79
2021/07/21 05:04:44;;;;;;;9.90;5.55;;;;;;;;;;6120689;29;20531;-78
2021/07/21 05:08:09;;;;;;;9.00;5.38;;;;;;;;;;6119327;29;20302;-78
2021/07/21 05:11:27;;;;;;;8.50;5.07;;;;;;;;;;6118981;29;20036;-79
2021/07/21 05:14:32;;;;;;;9.02;5.72;;;;;;;;;;6118360;29;20102;-79
2021/07/21 05:18:03;;;;;;;8.90;5.35;;;;;;;;;;6055137;29;20055;-79
2021/07/21 05:21:14;;;;;;;9.52;5.43;;;;;;;;;;6119716;29;20043;-79
2021/07/21 05:24:16;;;;;;;9.05;6.00;;;;;;;;;;6118479;29;20047;-78
2021/07/21 05:27:18;;;;;;;9.40;5.95;;;;;;;;;;6131158;28;20129;-79
2021/07/21 05:30:20;;;;;;;9.93;5.97;;;;;;;;;;6142677;28;20039;-78
2021/07/21 05:33:33;;;;;;;;;;;;;;;;;;6089321;29;20051;-79
2021/07/21 05:36:38;;;;;;;9.55;5.40;;;;;;;;;;6095451;29;20432;-79
2021/07/21 05:39:48;;;;;;;10.02;6.13;;;;;;;;;;6119223;29;20048;-78
2021/07/21 05:42:50;;;;;;;11.18;6.47;;;;;;;;;;6135163;28;20054;-79
2021/07/21 05:45:52;;;;;;;9.07;5.93;;;;;;;;;;6122002;28;20047;-79
2021/07/21 05:48:59;;;;;;;10.75;6.10;;;;;;;;;;6142539;28;20044;-79
2021/07/21 05:52:09;;;;;;;12.85;6.00;;;;;;;;;;6127392;28;20047;-79
2021/07/21 05:55:12;;;;;;;11.23;6.43;;;;;;;;;;6142804;28;20039;-78
2021/07/21 05:58:15;;;;;;;10.38;6.32;;;;;;;;;;6140421;28;20078;-78
2021/07/21 06:01:18;;;;;;;10.15;6.30;;;;;;;;;;6143092;28;20047;-78
2021/07/21 06:04:21;;;;;;;;;;;;;;;;;;6141178;28;20043;-79
2021/07/21 06:07:43;;;;;;;13.00;6.22;;;;;;;;;;6143194;28;24729;-78
2021/07/21 06:11:20;;;;;;;12.55;6.15;;;;;;;;;;6141875;28;20079;-79
2021/07/21 06:14:22;;;;;;;15.07;6.68;;;;;;;;;;6139201;28;20055;-79
2021/07/21 06:17:26;;;;;;;11.80;5.93;;;;;;;;;;6131595;29;20048;-79
2021/07/21 06:20:36;;;;;;;12.88;5.65;;;;;;;;;;6118206;29;20047;-78
2021/07/21 06:23:39;;;;;;;9.48;6.13;;;;;;;;;;6132079;29;20077;-78
2021/07/21 06:26:42;;;;;;;12.00;6.20;;;;;;;;;;6105301;29;20055;-78
2021/07/21 06:29:58;;;;;;;10.50;5.90;;;;;;;;;;6124810;28;20050;-79
2021/07/21 06:33:02;;;;;;;14.15;5.72;;;;;;;;;;6131694;29;20576;-78
2021/07/21 06:36:04;;;;;;;13.83;6.30;;;;;;;;;;6128193;28;20079;-77
2021/07/21 06:39:13;;;;;;;14.20;6.15;;;;;;;;;;6130832;28;20127;-78
2021/07/21 06:42:16;;;;;;;10.88;6.18;;;;;;;;;;6133746;28;20051;-78
2021/07/21 06:45:25;;;;;;;10.35;5.80;;;;;;;;;;6143882;28;20043;-76
2021/07/21 06:48:49;;;;;;;13.35;5.97;;;;;;;;;;6141077;28;20090;-77
2021/07/21 06:51:52;;;;;;;11.15;5.78;;;;;;;;;;6144023;28;20043;-74
2021/07/21 06:55:00;;;;;;;8.52;4.90;;;;;;;;;;6140466;28;20066;-74
2021/07/21 06:58:03;;;;;;;11.77;5.38;;;;;;;;;;6122195;28;20102;-75
2021/07/21 07:01:20;;;;;;;15.48;5.38;;;;;;;;;;6117212;29;20044;-74
2021/07/21 07:04:41;;;;;;;8.20;5.10;;;;;;;;;;6116104;29;20059;-75
2021/07/21 07:08:11;;;;;;;7.32;4.68;;;;;;;;;;6062893;29;20417;-75
2021/07/21 07:11:32;;;;;;;7.35;4.03;;;;;;;;;;6116559;28;20055;-74
2021/07/21 07:14:33;;;;;;;9.02;4.30;;;;;;;;;;6115221;29;20095;-74
2021/07/21 07:17:36;;;;;;;10.02;5.00;;;;;;;;;;6116296;28;20539;-74
2021/07/21 07:20:38;;;;;;;7.50;4.68;;;;;;;;;;6115316;29;20506;-74
2021/07/21 07:23:39;;;;;;;9.38;4.60;;;;;;;;;;6123664;28;20456;-74
2021/07/21 07:26:43;;;;;;;8.88;4.28;;;;;;;;;;6135178;28;20190;-74
2021/07/21 07:29:45;;;;;;;6.63;4.03;;;;;;;;;;6140694;28;20090;-74
2021/07/21 07:32:46;;;;;;;6.55;3.90;;;;;;;;;;6138936;28;20170;-74
2021/07/21 07:35:48;;;;;;;6.97;4.03;;;;;;;;;;6140080;28;20124;-74
2021/07/21 07:38:50;;;;;;;6.68;4.30;;;;;;;;;;6139552;28;20086;-74
2021/07/21 07:41:52;;;;;;;6.15;3.60;;;;;;;;;;6119673;28;20532;-74
2021/07/21 07:44:53;;;;;;;7.70;3.70;;;;;;;;;;6117372;29;20047;-74
2021/07/21 07:47:56;;;;;;;8.57;3.47;;;;;;;;;;6139512;28;20071;-74
2021/07/21 07:50:59;;;;;;;5.30;3.25;;;;;;;;;;6117320;29;20035;-74
2021/07/21 07:54:04;;;;;;;6.15;3.33;;;;;;;;;;6115504;29;20067;-74
2021/07/21 07:57:06;;;;;;;6.03;3.42;;;;;;;;;;6113553;29;20055;-74
2021/07/21 08:00:09;;;;;;;5.25;3.70;;;;;;;;;;6117681;29;20530;-74
2021/07/21 08:03:14;;;;;;;4.55;3.38;;;;;;;;;;6116495;29;20440;-74
2021/07/21 08:06:16;;;;;;;5.23;3.03;;;;;;;;;;6093084;29;20052;-74
2021/07/21 08:09:17;;;;;;;5.45;3.22;;;;;;;;;;6093394;29;20425;-74
2021/07/21 08:12:19;;;;;;;4.15;3.13;;;;;;;;;;6092212;29;20044;-75
2021/07/21 08:15:20;;;;;;;4.60;3.53;;;;;;;;;;6092876;29;20068;-75
2021/07/21 08:18:22;;;;;;;3.95;3.00;;;;;;;;;;6105687;29;20577;-75
2021/07/21 08:21:30;;;;;;;5.80;3.47;;;;;;;;;;6117804;29;20043;-78
2021/07/21 08:24:32;;;;;;;5.10;3.75;;;;;;;;;;6120139;29;20095;-79
2021/07/21 08:27:34;;;;;;;5.93;3.55;;;;;;;;;;6099676;29;20421;-78
2021/07/21 08:30:36;;;;;;;6.97;3.75;;;;;;;;;;6106699;29;20103;-79
2021/07/21 08:33:38;;;;;;;5.27;3.77;;;;;;;;;;6103327;29;20558;-78
2021/07/21 08:36:41;;;;;;;6.65;3.50;;;;;;;;;;6098034;29;20087;-78
2021/07/21 08:39:43;;;;;;;5.53;3.25;;;;;;;;;;6097643;29;20081;-78
2021/07/21 08:42:47;;;;;;;5.15;3.47;;;;;;;;;;6095201;29;20067;-79
2021/07/21 08:45:49;;;;;;;4.85;3.95;;;;;;;;;;6115982;29;20485;-78
2021/07/21 08:48:52;;;;;;;4.38;3.47;;;;;;;;;;6102971;29;20092;-78
2021/07/21 08:51:54;;;;;;;4.85;3.88;;;;;;;;;;6097735;29;20040;-78
2021/07/21 08:55:00;;;;;;;5.78;4.03;;;;;;;;;;6118555;29;20067;-78
2021/07/21 08:58:01;;;;;;;5.60;3.92;;;;;;;;;;6119554;29;20126;-79
2021/07/21 09:01:03;;;;;;;5.18;3.65;;;;;;;;;;6120903;29;20538;-78
2021/07/21 09:04:05;;;;;;;5.23;3.93;;;;;;;;;;6122388;28;20043;-78
2021/07/21 09:07:10;;;;;;;5.05;3.67;;;;;;;;;;6122633;29;20059;-78
2021/07/21 09:10:32;;;;;;;6.88;3.97;;;;;;;;;;6122336;29;20060;-78
2021/07/21 09:13:35;;;;;;;6.07;4.03;;;;;;;;;;6120621;29;20036;-78
2021/07/21 09:16:37;;;;;;;5.70;3.90;;;;;;;;;;6134781;28;20075;-78
2021/07/21 09:19:48;;;;;;;4.90;3.40;;;;;;;;;;6120420;29;20044;-79
2021/07/21 09:22:56;;;;;;;6.40;3.78;;;;;;;;;;6136352;29;20590;-79
2021/07/21 09:25:58;;;;;;;6.55;3.90;;;;;;;;;;6117077;28;20441;-78
2021/07/21 09:29:01;;;;;;;6.27;4.20;;;;;;;;;;6134297;29;20055;-78
2021/07/21 09:32:03;;;;;;;6.30;4.00;;;;;;;;;;6148921;28;20055;-79
2021/07/21 09:35:05;;;;;;;6.43;4.05;;;;;;;;;;6102139;29;20048;-78
2021/07/21 09:38:22;;;;;;;6.20;3.90;;;;;;;;;;6117497;29;20529;-78
2021/07/21 09:41:24;;;;;;;5.85;3.75;;;;;;;;;;6118888;28;20208;-78
2021/07/21 09:44:41;;;;;;;5.80;3.97;;;;;;;;;;6118224;28;20067;-78
2021/07/21 09:47:55;;;;;;;6.28;4.05;;;;;;;;;;6142685;28;20056;-79
2021/07/21 09:50:57;;;;;;;5.40;4.00;;;;;;;;;;6121890;29;20100;-78
2021/07/21 09:54:19;;;;;;;6.35;3.88;;;;;;;;;;6120332;29;20043;-79
2021/07/21 09:57:20;;;;;;;6.15;3.60;;;;;;;;;;6121532;28;20401;-79
2021/07/21 10:00:27;;;;;;;5.85;4.22;;;;;;;;;;6125105;28;20059;-79
2021/07/21 10:03:30;;;;;;;5.22;3.80;;;;;;;;;;6125891;28;20043;-79
2021/07/21 10:06:40;;;;;;;5.75;4.10;;;;;;;;;;6127186;29;20120;-79
2021/07/21 10:09:41;;;;;;;7.25;4.00;;;;;;;;;;6145791;28;20417;-81
2021/07/21 10:12:43;;;;;;;6.73;4.10;;;;;;;;;;6147512;28;20050;-79
2021/07/21 10:15:46;;;;;;;6.00;3.90;;;;;;;;;;6136627;28;20122;-78
2021/07/21 10:19:10;;;;;;;4.93;4.20;;;;;;;;;;6123383;29;20051;-78
2021/07/21 10:22:12;;;;;;;4.53;3.88;;;;;;;;;;6124470;29;20489;-78
2021/07/21 10:25:14;;;;;;;6.13;3.72;;;;;;;;;;6123603;28;20066;-78
2021/07/21 10:28:16;;;;;;;6.43;4.30;;;;;;;;;;6142126;28;20397;-79
2021/07/21 10:31:18;;;;;;;5.80;3.65;;;;;;;;;;6162463;28;20051;-79
2021/07/21 10:34:21;;;;;;;6.47;4.00;;;;;;;;;;6139768;28;20051;-80
2021/07/21 10:37:23;;;;;;;6.25;4.47;;;;;;;;;;6123952;29;20440;-79
2021/07/21 10:40:27;;;;;;;4.97;4.13;;;;;;;;;;6126546;29;20067;-79
2021/07/21 10:43:30;;;;;;;4.88;3.83;;;;;;;;;;6126060;29;20111;-79
2021/07/21 10:46:45;;;;;;;6.20;4.03;;;;;;;;;;6132161;28;20039;-79
2021/07/21 10:49:57;;;;;;;5.22;4.07;;;;;;;;;;6125492;29;20043;-79
2021/07/21 10:59:50;;;;;;;5.50;3.88;;;;;;;;;;6141218;28;20513;-75
2021/07/21 11:02:52;;;;;;;6.53;4.18;;;;;;;;;;6140171;28;20122;-74
2021/07/21 11:06:04;;;;;;;7.50;4.55;;;;;;;;;;6139620;28;20055;-74
2021/07/21 11:09:19;;;;;;;5.68;4.10;;;;;;;;;;6141504;28;20051;-74
2021/07/21 11:12:32;;;;;;;6.70;4.00;;;;;;;;;;6137266;28;20464;-74
2021/07/21 11:15:39;;;;;;;6.00;4.18;;;;;;;;;;6141004;28;20047;-74
2021/07/21 11:18:43;;;;;;;5.18;3.63;;;;;;;;;;6138146;28;20071;-74
2021/07/21 11:22:10;;;;;;;5.55;4.43;;;;;;;;;;6096197;28;20084;-74
2021/07/21 11:25:15;;;;;;;5.10;3.88;;;;;;;;;;6089278;29;20044;-73
2021/07/21 11:28:28;;;;;;;7.18;4.45;;;;;;;;;;6094397;29;20061;-74
2021/07/21 11:31:48;;;;;;;5.20;4.57;;;;;;;;;;6109061;29;20119;-74
2021/07/21 11:34:50;;;;;;;6.07;4.35;;;;;;;;;;6094131;29;20044;-74
2021/07/21 11:37:52;;;;;;;5.45;4.35;;;;;;;;;;6116578;29;20130;-75
2021/07/21 11:40:53;;;;;;;5.70;4.10;;;;;;;;;;6117942;28;20123;-76
2021/07/21 11:44:02;;;;;;;5.88;4.50;;;;;;;;;;6117074;29;20039;-75
2021/07/21 11:47:14;;;;;;;6.85;4.22;;;;;;;;;;6124505;28;20179;-75
2021/07/21 11:50:29;;;;;;;4.68;4.10;;;;;;;;;;6140052;28;20043;-74
2021/07/21 11:53:30;;;;;;;7.63;4.57;;;;;;;;;;6138359;28;20050;-74
2021/07/21 11:56:32;;;;;;;5.88;4.00;;;;;;;;;;6136314;28;20055;-74
2021/07/21 11:59:35;;;;;;;6.00;4.43;;;;;;;;;;6140368;28;20058;-75
2021/07/21 12:02:37;;;;;;;6.00;4.13;;;;;;;;;;6137289;28;20090;-76
2021/07/21 12:05:40;;;;;;;6.22;4.03;;;;;;;;;;6139863;28;20124;-75
2021/07/21 12:08:56;;;;;;;5.88;4.18;;;;;;;;;;6140946;28;20043;-76
2021/07/21 12:12:01;;;;;;;4.93;4.00;;;;;;;;;;6120642;28;20118;-76
2021/07/21 12:15:03;;;;;;;6.00;4.35;;;;;;;;;;6116774;29;20062;-75
2021/07/21 12:18:09;;;;;;;;;;;;;;;;;;6131582;28;20054;-76
2021/07/21 12:21:11;;;;;;;5.32;3.88;;;;;;;;;;6115217;29;20069;-76
2021/07/21 12:24:14;;;;;;;6.03;3.95;;;;;;;;;;6116440;29;20051;-76
2021/07/21 12:27:32;;;;;;;5.78;4.55;;;;;;;;;;6116720;28;20178;-76
2021/07/21 12:30:36;;;;;;;6.25;4.32;;;;;;;;;;6122959;28;20078;-76
2021/07/21 12:33:38;;;;;;;6.53;4.32;;;;;;;;;;6123074;28;20047;-76
2021/07/21 12:36:49;;;;;;;5.03;4.03;;;;;;;;;;6114746;29;20517;-76
2021/07/21 12:39:54;;;;;;;5.47;4.50;;;;;;;;;;6131111;29;20098;-77
2021/07/21 12:42:58;;;;;;;6.47;4.30;;;;;;;;;;6116303;28;20429;-76
2021/07/21 12:46:00;;;;;;;5.20;4.32;;;;;;;;;;6120388;28;20043;-77
2021/07/21 12:49:01;;;;;;;5.93;4.22;;;;;;;;;;6133776;28;20055;-77
2021/07/21 12:52:05;;;;;;;5.00;4.30;;;;;;;;;;6116530;29;20134;-76
2021/07/21 12:55:09;;;;;;;7.25;4.20;;;;;;;;;;6129821;29;20044;-76
2021/07/21 12:58:12;;;;;;;8.15;4.28;;;;;;;;;;6116051;29;20055;-77
2021/07/21 13:01:23;;;;;;;4.93;4.00;;;;;;;;;;6129652;29;20416;-76
2021/07/21 13:04:32;;;;;;;6.75;4.57;;;;;;;;;;6115241;29;20449;-77
2021/07/21 13:07:34;;;;;;;5.05;4.05;;;;;;;;;;6116421;29;20043;-76
2021/07/21 13:10:38;;;;;;;5.20;4.38;;;;;;;;;;6115844;29;20516;-77
2021/07/21 13:13:49;;;;;;;4.53;4.03;;;;;;;;;;6129086;28;20043;-77
2021/07/21 13:16:51;;;;;;;4.87;4.13;;;;;;;;;;6135075;28;20043;-77
2021/07/21 13:20:01;;;;;;;6.07;4.13;;;;;;;;;;6138822;28;20039;-76
2021/07/21 13:23:21;;;;;;;5.28;4.10;;;;;;;;;;6137695;28;20051;-76
2021/07/21 13:26:23;;;;;;;6.10;4.03;;;;;;;;;;6130975;28;20123;-76
2021/07/21 13:29:28;;;;;;;5.28;4.43;;;;;;;;;;6137939;28;20551;-77
2021/07/21 13:32:29;;;;;;;6.47;4.15;;;;;;;;;;6145100;28;20123;-76
2021/07/21 13:35:31;;;;;;;5.93;4.15;;;;;;;;;;6130991;28;20195;-76
2021/07/21 13:38:33;;;;;;;6.28;4.60;;;;;;;;;;6143849;28;20512;-77
2021/07/21 13:41:38;;;;;;;6.13;4.07;;;;;;;;;;6142171;28;20146;-76
2021/07/21 13:44:39;;;;;;;6.57;4.28;;;;;;;;;;6142841;28;20556;-77
2021/07/21 13:47:42;;;;;;;6.25;4.38;;;;;;;;;;6129150;28;20111;-76
2021/07/21 13:50:44;;;;;;;6.85;4.88;;;;;;;;;;6143755;28;20054;-76
2021/07/21 13:53:46;;;;;;;5.38;4.20;;;;;;;;;;6143213;28;20746;-77
2021/07/21 13:56:53;;;;;;;6.15;4.20;;;;;;;;;;6144752;28;20098;-81
2021/07/21 13:59:55;;;;;;;6.70;4.30;;;;;;;;;;6150177;28;20091;-79
2021/07/21 14:02:58;;;;;;;6.32;4.22;;;;;;;;;;6134189;29;20191;-83
2021/07/21 14:06:00;;;;;;;5.85;4.35;;;;;;;;;;6128711;28;20051;-80
2021/07/21 14:09:04;;;;;;;5.47;4.40;;;;;;;;;;6143286;28;20145;-77
2021/07/21 14:12:06;;;;;;;4.93;4.07;;;;;;;;;;6128078;28;20055;-79
2021/07/21 14:15:08;;;;;;;6.28;4.18;;;;;;;;;;6136227;29;20059;-79
2021/07/21 14:18:09;;;;;;;;;;;;;;;;;;6144490;28;20054;-79
2021/07/21 14:21:12;;;;;;;6.10;4.07;;;;;;;;;;6135267;29;19927;-79
2021/07/21 14:24:13;;;;;;;4.97;4.20;;;;;;;;;;6135178;29;20043;-79
2021/07/21 14:27:15;;;;;;;5.30;4.20;;;;;;;;;;6151425;28;20075;-80
2021/07/21 14:30:17;;;;;;;5.30;4.20;;;;;;;;;;6178026;28;20066;-80
2021/07/21 14:33:19;;;;;;;;;;;;;;;;;;6155964;28;20047;-81
2021/07/21 14:36:21;;;;;;;4.93;4.13;;;;;;;;;;6153497;28;19946;-82
2021/07/21 14:39:23;;;;;;;5.88;4.63;;;;;;;;;;6157352;28;20053;-81
2021/07/21 14:42:25;;;;;;;6.55;4.90;;;;;;;;;;6152883;28;20047;-80
2021/07/21 14:45:27;;;;;;;5.57;4.80;;;;;;;;;;6132763;28;20075;-80
2021/07/21 14:48:28;;;;;;;9.73;7.53;;;;;;;;;;6138725;28;20198;-80
2021/07/21 14:51:30;;;;;;;7.85;6.55;;;;;;;;;;6125666;29;20458;-81
2021/07/21 14:54:32;;;;;;;6.40;4.88;;;;;;;;;;6130628;29;20521;-80
2021/07/21 14:57:33;;;;;;;5.57;3.92;;;;;;;;;;6161432;28;20115;-80
2021/07/21 15:00:35;;;;;;;5.78;4.45;;;;;;;;;;6156292;28;20047;-80
2021/07/21 15:03:38;;;;;;;5.50;4.35;;;;;;;;;;6155305;28;20043;-80
2021/07/21 15:06:40;;;;;;;6.63;4.10;;;;;;;;;;6155014;28;20043;-80
2021/07/21 15:09:42;;;;;;;4.85;4.03;;;;;;;;;;6157628;28;20068;-80
2021/07/21 15:12:44;;;;;;;7.10;4.70;;;;;;;;;;6152966;28;20509;-80
2021/07/21 15:15:46;;;;;;;4.80;4.00;;;;;;;;;;6156174;28;20043;-80
2021/07/21 15:18:47;;;;;;;6.60;4.70;;;;;;;;;;6139186;28;20039;-80
2021/07/21 15:21:49;;;;;;;6.43;3.97;;;;;;;;;;6128852;29;20119;-78
2021/07/21 15:24:51;;;;;;;4.97;4.07;;;;;;;;;;6126851;29;20465;-80
2021/07/21 15:27:52;;;;;;;4.82;4.05;;;;;;;;;;6145328;28;20051;-80
2021/07/21 15:30:54;;;;;;;6.22;3.88;;;;;;;;;;6143262;28;20461;-79
2021/07/21 15:33:56;;;;;;;4.88;3.47;;;;;;;;;;6152332;28;20047;-80
2021/07/21 15:36:57;;;;;;;4.70;3.88;;;;;;;;;;6154704;28;20126;-80
2021/07/21 15:39:59;;;;;;;5.10;3.88;;;;;;;;;;6150071;28;20048;-80
2021/07/21 15:43:01;;;;;;;6.30;4.28;;;;;;;;;;6131139;29;20091;-78
2021/07/21 15:46:03;;;;;;;5.68;3.80;;;;;;;;;;6133230;28;20152;-79
2021/07/21 15:49:06;;;;;;;5.15;3.92;;;;;;;;;;6128477;28;20054;-79
2021/07/21 15:52:09;;;;;;;5.35;3.95;;;;;;;;;;6130369;29;20421;-79
2021/07/21 15:55:13;;;;;;;6.45;4.20;;;;;;;;;;6145563;29;20063;-80
2021/07/21 15:58:15;;;;;;;3.97;3.58;;;;;;;;;;6147198;28;20071;-81
2021/07/21 16:01:16;;;;;;;4.70;3.63;;;;;;;;;;6130227;29;20067;-80
2021/07/21 16:04:19;;;;;;;4.40;3.65;;;;;;;;;;6131664;28;20054;-80
2021/07/21 16:07:20;;;;;;;;;;;;;;;;;;6136636;29;20039;-81
2021/07/21 16:10:23;;;;;;;5.22;3.88;;;;;;;;;;6140826;28;19922;-81
2021/07/21 16:13:24;;;;;;;;;;;;;;;;;;6145418;28;20039;-80
2021/07/21 16:16:26;;;;;;;4.50;3.40;;;;;;;;;;6155732;28;19922;-80
2021/07/21 16:19:28;;;;;;;5.25;3.65;;;;;;;;;;6143298;28;20039;-81
2021/07/21 16:22:31;;;;;;;4.18;3.78;;;;;;;;;;6154306;28;20047;-81
2021/07/21 16:25:34;;;;;;;4.60;3.50;;;;;;;;;;6155290;28;20054;-81
2021/07/21 16:28:36;;;;;;;5.72;3.80;;;;;;;;;;6153161;28;20043;-81
2021/07/21 16:31:38;;;;;;;7.78;4.00;;;;;;;;;;6142662;28;20067;-79
2021/07/21 16:34:43;;;;;;;6.03;3.80;;;;;;;;;;6149859;28;20717;-81
2021/07/21 16:37:50;;;;;;;4.97;3.95;;;;;;;;;;6155311;28;20057;-80
2021/07/21 16:40:51;;;;;;;5.75;3.80;;;;;;;;;;6144970;28;20102;-80
2021/07/21 16:43:53;;;;;;;5.57;3.70;;;;;;;;;;6157930;28;20066;-81
2021/07/21 16:46:55;;;;;;;4.57;3.50;;;;;;;;;;6143152;28;20570;-81
2021/07/21 16:49:56;;;;;;;5.35;3.30;;;;;;;;;;6132069;29;20431;-80
2021/07/21 16:52:58;;;;;;;4.82;3.88;;;;;;;;;;6127332;29;20514;-80
2021/07/21 16:55:59;;;;;;;4.40;3.47;;;;;;;;;;6127581;29;20164;-80
2021/07/21 16:59:02;;;;;;;5.20;3.17;;;;;;;;;;6124752;29;21004;-80
2021/07/21 17:02:04;;;;;;;4.88;3.55;;;;;;;;;;6125529;29;20055;-80
2021/07/21 17:05:06;;;;;;;4.78;3.45;;;;;;;;;;6144932;28;20043;-80
2021/07/21 17:08:08;;;;;;;4.50;3.70;;;;;;;;;;6153471;28;20079;-79
2021/07/21 17:11:09;;;;;;;6.15;3.80;;;;;;;;;;6147087;28;20054;-80
2021/07/21 17:14:13;;;;;;;4.68;3.30;;;;;;;;;;6124511;29;20039;-81
2021/07/21 17:17:15;;;;;;;3.80;3.22;;;;;;;;;;6150980;28;20111;-80
2021/07/21 17:20:39;;;;;;;5.38;3.72;;;;;;;;;;6161692;28;20067;-79
2021/07/21 17:23:41;;;;;;;5.20;3.58;;;;;;;;;;6143956;28;20043;-79
2021/07/21 17:26:42;;;;;;;4.90;3.58;;;;;;;;;;6121924;28;20130;-79
2021/07/21 17:29:44;;;;;;;4.67;3.07;;;;;;;;;;6140665;28;20461;-79
2021/07/21 17:32:46;;;;;;;5.97;3.67;;;;;;;;;;6135409;28;20786;-80
2021/07/21 17:35:48;;;;;;;6.65;3.60;;;;;;;;;;6141495;28;20051;-80
2021/07/21 17:38:50;;;;;;;4.68;3.67;;;;;;;;;;6140844;28;20055;-80
2021/07/21 17:41:52;;;;;;;6.07;3.15;;;;;;;;;;6134063;28;20118;-80
2021/07/21 17:44:54;;;;;;;4.10;3.22;;;;;;;;;;6116940;29;20395;-80
2021/07/21 17:47:58;;;;;;;5.57;3.33;;;;;;;;;;6122648;29;20055;-80
2021/07/21 17:51:00;;;;;;;5.80;3.30;;;;;;;;;;6108983;29;20043;-79
2021/07/21 17:54:02;;;;;;;4.18;3.33;;;;;;;;;;6120482;29;20191;-80
2021/07/21 17:57:05;;;;;;;3.70;3.10;;;;;;;;;;6115546;29;20071;-79
2021/07/21 18:00:11;;;;;;;6.70;3.22;;;;;;;;;;6119934;29;20441;-80
2021/07/21 18:03:15;;;;;;;4.80;3.22;;;;;;;;;;6120492;28;20051;-80
2021/07/21 18:06:20;;;;;;;6.00;3.90;;;;;;;;;;6144233;28;20099;-81
2021/07/21 18:09:22;;;;;;;5.75;3.22;;;;;;;;;;6144078;28;20133;-80
2021/07/21 18:12:25;;;;;;;4.70;3.40;;;;;;;;;;6135281;28;20523;-80
2021/07/21 18:15:26;;;;;;;;;;;;;;;;;;6122462;28;20095;-80
2021/07/21 18:18:28;;;;;;;4.97;3.63;;;;;;;;;;6139186;28;19926;-79
2021/07/21 18:21:40;;;;;;;6.03;3.78;;;;;;;;;;6149322;28;20054;-80
2021/07/21 18:24:42;;;;;;;6.53;4.23;;;;;;;;;;6147091;28;20066;-80
2021/07/21 18:27:47;;;;;;;4.80;3.40;;;;;;;;;;6155344;28;20446;-79
2021/07/21 18:30:49;;;;;;;5.90;4.05;;;;;;;;;;6149800;28;20394;-80
2021/07/21 18:33:51;;;;;;;8.63;5.53;;;;;;;;;;6128201;28;20214;-80
2021/07/21 18:36:52;;;;;;;5.68;3.67;;;;;;;;;;6124150;29;20075;-80
2021/07/21 18:39:55;;;;;;;5.78;4.35;;;;;;;;;;6124868;29;20139;-80
2021/07/21 18:42:57;;;;;;;6.70;3.90;;;;;;;;;;6125778;28;20059;-80
2021/07/21 18:45:59;;;;;;;5.43;3.78;;;;;;;;;;6129415;28;20118;-80